Time;durP1;ratioP1;P1;durP2;ratioP2;P2;SDS_P1;SDS_P2;PMS_P1;PMS_P2;Temp;Humidity;BMP_temperature;BMP_pressure;BME280_temperature;BME280_humidity;BME280_pressure;Samples;Min_cycle;Max_cycle;Signal;HPM_P1;HPM_P2
2022/08/28 00:01:51;;;;;;;;;;;563.40;2432.00;;;;;;5071045;28;19916;-56
2022/08/28 00:04:17;;;;;;;;;;;563.40;2432.00;;;;;;5074961;28;19916;-55
2022/08/28 00:06:42;;;;;;;;;;;563.30;2432.00;;;;;;5074629;28;20282;-57
2022/08/28 00:09:08;;;;;;;;;;;563.30;2432.00;;;;;;5074873;28;19908;-55
2022/08/28 00:11:36;;;;;;;;;;;563.20;2432.00;;;;;;5074650;28;19995;-56
2022/08/28 00:14:02;;;;;;;;;;;563.20;2432.00;;;;;;5074798;28;20282;-56
2022/08/28 00:16:29;;;;;;;;;;;563.30;2432.00;;;;;;5074750;28;19908;-56
2022/08/28 00:18:55;;;;;;;;;;;563.40;2432.00;;;;;;5074870;28;19919;-56
2022/08/28 00:21:21;;;;;;;;;;;563.30;2432.00;;;;;;5074377;28;19909;-56
2022/08/28 00:23:47;;;;;;;;;;;563.20;2432.00;;;;;;5074631;28;19909;-56
2022/08/28 00:27:51;;;;;;;;;;;538.50;2406.40;;;;;;5074249;28;19920;-56
2022/08/28 00:28:58;;;;;;;;;;;538.50;2406.40;;;;;;5074547;28;19943;-56
2022/08/28 00:31:24;;;;;;;;;;;538.50;2406.40;;;;;;5074038;28;19916;-57
2022/08/28 00:33:49;;;;;;;;;;;563.20;2432.00;;;;;;5074064;28;19923;-56
2022/08/28 00:36:15;;;;;;;;;;;563.20;2432.00;;;;;;5074439;28;20397;-57
2022/08/28 00:38:40;;;;;;;;;;;563.20;2432.00;;;;;;5074042;28;19917;-57
2022/08/28 00:41:06;;;;;;;;;;;563.20;2432.00;;;;;;5074272;28;19916;-56
2022/08/28 00:43:35;;;;;;;;;;;563.30;2432.00;;;;;;5074161;28;19909;-56
2022/08/28 00:46:02;;;;;;;;;;;563.20;2432.00;;;;;;5073823;28;19920;-56
2022/08/28 00:48:28;;;;;;;;;;;563.20;2432.00;;;;;;5074125;28;19916;-56
2022/08/28 00:53:37;;;;;;;;;;;538.50;2406.40;;;;;;5074481;28;20312;-56
2022/08/28 00:56:05;;;;;;;;;;;538.50;2406.40;;;;;;5073835;28;19912;-55
2022/08/28 00:58:31;;;;;;;;;;;538.50;2406.40;;;;;;5073734;28;19913;-56
2022/08/28 01:00:57;;;;;;;;;;;563.20;2432.00;;;;;;5073742;28;20332;-56
2022/08/28 01:03:24;;;;;;;;;;;563.20;2432.00;;;;;;5073723;28;19920;-56
2022/08/28 01:05:50;;;;;;;;;;;538.50;2406.40;;;;;;5073269;28;20413;-57
2022/08/28 01:08:15;;;;;;;;;;;538.50;2406.40;;;;;;5073901;28;19941;-56
2022/08/28 01:10:44;;;;;;;;;;;538.50;2406.40;;;;;;5073584;28;19931;-56
2022/08/28 01:13:10;;;;;;;;;;;538.50;2406.40;;;;;;5072993;28;20000;-56
2022/08/28 01:15:36;;;;;;;;;;;538.50;2406.40;;;;;;5073584;28;19960;-56
2022/08/28 01:18:04;;;;;;;;;;;538.40;2406.40;;;;;;5073450;28;19908;-56
2022/08/28 01:20:31;;;;;;;;;;;563.20;2432.00;;;;;;5073346;28;19908;-57
2022/08/28 01:22:59;;;;;;;;;;;563.40;2432.00;;;;;;5073597;28;19961;-56
2022/08/28 01:25:26;;;;;;;;;;;563.50;2432.00;;;;;;5073579;28;19908;-56
2022/08/28 01:27:52;;;;;;;;;;;563.50;2432.00;;;;;;5073196;28;20378;-57
2022/08/28 01:30:20;;;;;;;;;;;563.50;2432.00;;;;;;5072015;28;19913;-56
2022/08/28 01:32:48;;;;;;;;;;;563.40;2432.00;;;;;;5073402;28;19912;-57
2022/08/28 01:35:15;;;;;;;;;;;563.30;2432.00;;;;;;5073096;28;19916;-56
2022/08/28 01:37:41;;;;;;;;;;;563.20;2432.00;;;;;;5073301;28;20342;-56
2022/08/28 01:40:08;;;;;;;;;;;538.40;2406.40;;;;;;5073292;28;19915;-55
2022/08/28 01:42:38;;;;;;;;;;;538.30;2406.40;;;;;;5073202;28;20270;-56
2022/08/28 01:45:04;;;;;;;;;;;538.30;2406.40;;;;;;5072791;28;19962;-56
2022/08/28 01:47:29;;;;;;;;;;;538.30;2406.40;;;;;;5072770;28;20356;-56
2022/08/28 01:49:55;;;;;;;;;;;538.40;2406.40;;;;;;5072989;28;19951;-56
2022/08/28 01:52:21;;;;;;;;;;;538.40;2406.40;;;;;;5073051;28;19908;-56
2022/08/28 01:54:46;;;;;;;;;;;538.30;2406.40;;;;;;5073194;28;20400;-56
2022/08/28 01:57:12;;;;;;;;;;;538.30;2406.40;;;;;;5072671;28;19909;-56
2022/08/28 01:59:37;;;;;;;;;;;538.20;2406.40;;;;;;5072906;28;19909;-56
2022/08/28 02:02:03;;;;;;;;;;;538.20;2406.40;;;;;;5072449;28;19913;-56
2022/08/28 02:04:29;;;;;;;;;;;538.20;2406.40;;;;;;5072587;28;19991;-55
2022/08/28 02:06:54;;;;;;;;;;;538.20;2406.40;;;;;;5072687;28;20019;-56
2022/08/28 02:09:20;;;;;;;;;;;538.00;2406.40;;;;;;5072644;28;20343;-56
2022/08/28 02:11:46;;;;;;;;;;;538.00;2406.40;;;;;;5072558;28;20324;-56
2022/08/28 02:14:11;;;;;;;;;;;537.90;2406.40;;;;;;5072163;28;19909;-57
2022/08/28 02:16:37;;;;;;;;;;;537.90;2406.40;;;;;;5072427;28;19908;-57
2022/08/28 02:19:02;;;;;;;;;;;537.90;2406.40;;;;;;5072342;28;19993;-57
2022/08/28 02:21:28;;;;;;;;;;;537.70;2406.40;;;;;;5072396;28;20618;-56
2022/08/28 02:23:53;;;;;;;;;;;537.60;2406.40;;;;;;5072018;28;19908;-56
2022/08/28 02:26:19;;;;;;;;;;;537.60;2406.40;;;;;;5071495;28;19920;-56
2022/08/28 02:28:45;;;;;;;;;;;512.90;2380.80;;;;;;5071280;28;20276;-57
2022/08/28 02:31:11;;;;;;;;;;;537.60;2406.40;;;;;;5071871;28;19923;-57
2022/08/28 02:33:38;;;;;;;;;;;537.60;2406.40;;;;;;5072159;28;20255;-56
2022/08/28 02:36:05;;;;;;;;;;;537.70;2406.40;;;;;;5071861;28;20250;-56
2022/08/28 02:38:31;;;;;;;;;;;537.70;2406.40;;;;;;5071891;28;20411;-56
2022/08/28 02:40:57;;;;;;;;;;;512.90;2380.80;;;;;;5072237;28;19908;-57
2022/08/28 02:43:22;;;;;;;;;;;512.90;2380.80;;;;;;5071922;28;19915;-56
2022/08/28 02:45:48;;;;;;;;;;;512.90;2380.80;;;;;;5071860;28;20371;-56
2022/08/28 02:48:13;;;;;;;;;;;512.90;2380.80;;;;;;5071634;28;19977;-56
2022/08/28 02:50:39;;;;;;;;;;;512.90;2380.80;;;;;;5071891;28;20373;-56
2022/08/28 02:53:05;;;;;;;;;;;512.90;2380.80;;;;;;5071704;28;19909;-56
2022/08/28 02:55:30;;;;;;;;;;;512.90;2380.80;;;;;;5071832;28;19912;-56
2022/08/28 02:57:56;;;;;;;;;;;512.80;2380.80;;;;;;5071803;28;19908;-56
2022/08/28 03:00:22;;;;;;;;;;;512.50;2380.80;;;;;;5071286;28;20003;-56
2022/08/28 03:02:48;;;;;;;;;;;512.60;2380.80;;;;;;5071632;28;19912;-55
2022/08/28 03:05:15;;;;;;;;;;;512.50;2380.80;;;;;;5071162;28;20003;-56
2022/08/28 03:07:41;;;;;;;;;;;512.50;2380.80;;;;;;5071350;28;19920;-56
2022/08/28 03:10:08;;;;;;;;;;;512.50;2380.80;;;;;;5071500;28;19913;-56
2022/08/28 03:12:34;;;;;;;;;;;512.50;2380.80;;;;;;5071254;28;19908;-56
2022/08/28 03:15:00;;;;;;;;;;;512.60;2380.80;;;;;;5071380;28;19994;-56
2022/08/28 03:17:26;;;;;;;;;;;512.60;2380.80;;;;;;5071476;28;20401;-56
2022/08/28 03:19:51;;;;;;;;;;;512.60;2380.80;;;;;;5071173;28;19908;-57
2022/08/28 03:23:24;;;;;;;;;;;512.70;2380.80;;;;;;5071384;28;20346;-55
2022/08/28 03:25:04;;;;;;;;;;;512.70;2380.80;;;;;;5071035;28;20270;-56
2022/08/28 03:27:30;;;;;;;;;;;512.60;2380.80;;;;;;5070922;28;19917;-56
2022/08/28 03:29:56;;;;;;;;;;;512.60;2380.80;;;;;;5071237;28;19913;-56
2022/08/28 03:32:21;;;;;;;;;;;512.80;2380.80;;;;;;5071013;28;20001;-56
2022/08/28 03:34:47;;;;;;;;;;;512.90;2380.80;;;;;;5071144;28;19909;-57
2022/08/28 03:37:12;;;;;;;;;;;537.60;2406.40;;;;;;5070712;28;19908;-57
2022/08/28 03:39:38;;;;;;;;;;;537.60;2406.40;;;;;;5071392;28;19915;-56
2022/08/28 03:42:04;;;;;;;;;;;537.70;2406.40;;;;;;5071074;28;19909;-56
2022/08/28 03:44:30;;;;;;;;;;;537.70;2406.40;;;;;;5071077;28;19915;-56
2022/08/28 03:46:56;;;;;;;;;;;537.80;2406.40;;;;;;5070942;28;20376;-55
2022/08/28 03:49:21;;;;;;;;;;;537.60;2406.40;;;;;;5070794;28;19916;-56
2022/08/28 03:51:47;;;;;;;;;;;512.80;2380.80;;;;;;5071024;28;20021;-56
2022/08/28 03:54:12;;;;;;;;;;;512.80;2380.80;;;;;;5070803;28;19909;-57
2022/08/28 03:56:39;;;;;;;;;;;512.90;2380.80;;;;;;5071085;28;19908;-56
2022/08/28 03:59:05;;;;;;;;;;;537.70;2406.40;;;;;;5070829;28;20365;-56
2022/08/28 04:01:32;;;;;;;;;;;537.80;2406.40;;;;;;5070516;28;19917;-56
2022/08/28 04:03:57;;;;;;;;;;;537.60;2406.40;;;;;;5070835;28;19912;-55
2022/08/28 04:06:23;;;;;;;;;;;537.60;2406.40;;;;;;5070294;28;19974;-56
2022/08/28 04:08:49;;;;;;;;;;;537.70;2406.40;;;;;;5071055;28;20346;-56
2022/08/28 04:11:16;;;;;;;;;;;537.90;2406.40;;;;;;5070751;28;19935;-57
2022/08/28 04:13:41;;;;;;;;;;;537.90;2406.40;;;;;;5070760;28;20314;-55
2022/08/28 04:16:09;;;;;;;;;;;538.00;2406.40;;;;;;5070698;28;20004;-55
2022/08/28 04:18:35;;;;;;;;;;;538.10;2406.40;;;;;;5070647;28;19916;-56
2022/08/28 04:21:04;;;;;;;;;;;538.10;2406.40;;;;;;5070517;28;19919;-57
2022/08/28 04:23:29;;;;;;;;;;;538.10;2406.40;;;;;;5070836;28;20385;-56
2022/08/28 04:25:55;;;;;;;;;;;538.20;2406.40;;;;;;5070549;28;19958;-55
2022/08/28 04:28:21;;;;;;;;;;;538.20;2406.40;;;;;;5070574;28;19958;-56
2022/08/28 04:30:48;;;;;;;;;;;538.30;2406.40;;;;;;5070631;28;20011;-56
2022/08/28 04:33:14;;;;;;;;;;;538.40;2406.40;;;;;;5070255;28;20281;-56
2022/08/28 04:35:40;;;;;;;;;;;538.50;2406.40;;;;;;5070671;28;19908;-57
2022/08/28 04:38:06;;;;;;;;;;;538.50;2406.40;;;;;;5070562;28;20408;-56
2022/08/28 04:40:32;;;;;;;;;;;563.20;2432.00;;;;;;5070585;28;20315;-56
2022/08/28 04:42:57;;;;;;;;;;;563.20;2432.00;;;;;;5070631;28;20030;-57
2022/08/28 04:45:23;;;;;;;;;;;563.20;2432.00;;;;;;5070210;28;19924;-55
2022/08/28 04:47:49;;;;;;;;;;;538.50;2406.40;;;;;;5070767;28;19913;-56
2022/08/28 04:50:14;;;;;;;;;;;563.30;2432.00;;;;;;5073950;28;19915;-56
2022/08/28 04:52:42;;;;;;;;;;;563.50;2432.00;;;;;;5073789;28;19935;-56
2022/08/28 04:55:07;;;;;;;;;;;;;;;;;;5073901;28;20005;-55
2022/08/28 04:57:33;;;;;;;;;;;563.70;2432.00;;;;;;5073790;28;19947;-55
2022/08/28 04:59:59;;;;;;;;;;;563.90;2432.00;;;;;;5073726;28;19912;-56
2022/08/28 05:02:24;;;;;;;;;;;564.10;2432.00;;;;;;5073606;28;19966;-56
2022/08/28 05:04:50;;;;;;;;;;;588.90;2432.00;;;;;;5073395;28;20022;-56
2022/08/28 05:07:15;;;;;;;;;;;589.60;2432.00;;;;;;5073705;28;19917;-55
2022/08/28 05:09:41;;;;;;;;;;;615.00;2432.00;;;;;;5073823;28;20437;-56
2022/08/28 05:12:06;;;;;;;;;;;640.40;2432.00;;;;;;5073833;28;20363;-56
2022/08/28 05:14:32;;;;;;;;;;;666.10;2432.00;;;;;;5073106;28;19908;-56
2022/08/28 05:16:58;;;;;;;;;;;691.40;2432.00;;;;;;5073561;28;20274;-56
2022/08/28 05:19:24;;;;;;;;;;;716.90;2278.40;;;;;;5073254;28;19969;-55
2022/08/28 05:21:50;;;;;;;;;;;742.40;2124.80;;;;;;5073477;28;19915;-56
2022/08/28 05:24:16;;;;;;;;;;;742.90;2048.00;;;;;;5073462;28;19908;-56
2022/08/28 05:26:42;;;;;;;;;;;768.40;1920.00;;;;;;5073344;28;19916;-56
2022/08/28 05:29:09;;;;;;;;;;;793.60;1817.60;;;;;;5073373;28;20266;-56
2022/08/28 05:31:36;;;;;;;;;;;768.90;1792.00;;;;;;5073156;28;19912;-56
2022/08/28 05:34:03;;;;;;;;;;;794.20;1792.00;;;;;;5073266;28;19913;-56
2022/08/28 05:36:30;;;;;;;;;;;819.60;1715.20;;;;;;5073250;28;20350;-56
2022/08/28 05:38:56;;;;;;;;;;;819.90;1664.00;;;;;;5073336;28;19944;-57
2022/08/28 05:41:24;;;;;;;;;;;845.60;1612.80;;;;;;5072945;28;19931;-57
2022/08/28 05:43:51;;;;;;;;;;;870.90;1561.60;;;;;;5072872;28;19909;-57
2022/08/28 05:46:16;;;;;;;;;;;896.50;1484.80;;;;;;5073002;28;20322;-57
2022/08/28 05:48:44;;;;;;;;;;;896.50;1433.60;;;;;;5072838;28;19951;-56
2022/08/28 05:51:11;;;;;;;;;;;896.20;1459.20;;;;;;5073055;28;20428;-57
2022/08/28 05:53:40;;;;;;;;;;;870.90;1510.40;;;;;;5072966;28;19908;-57
2022/08/28 05:56:06;;;;;;;;;;;896.00;1459.20;;;;;;5073198;28;20389;-56
2022/08/28 05:58:33;;;;;;;;;;;896.80;1433.60;;;;;;5072580;28;19908;-54
2022/08/28 06:01:05;;;;;;;;;;;922.40;1408.00;;;;;;5072798;28;19913;-57
2022/08/28 06:03:31;;;;;;;;;;;922.40;1382.40;;;;;;5072534;28;20411;-56
2022/08/28 06:05:59;;;;;;;;;;;922.30;1382.40;;;;;;5072488;28;19920;-56
2022/08/28 06:08:25;;;;;;;;;;;921.80;1408.00;;;;;;5072571;28;20263;-59
2022/08/28 06:10:51;;;;;;;;;;;896.50;1433.60;;;;;;5072525;28;19912;-57
2022/08/28 06:13:16;;;;;;;;;;;871.10;1536.00;;;;;;5072755;28;19996;-59
2022/08/28 06:15:43;;;;;;;;;;;871.30;1484.80;;;;;;5072254;28;20368;-58
2022/08/28 06:18:08;;;;;;;;;;;896.70;1459.20;;;;;;5072350;28;20346;-59
2022/08/28 06:20:40;;;;;;;;;;;947.20;1408.00;;;;;;5072191;28;19908;-59
2022/08/28 06:23:06;;;;;;;;;;;973.10;1356.80;;;;;;5072524;28;21025;-58
2022/08/28 06:25:35;;;;;;;;;;;973.70;1331.20;;;;;;5072286;28;19966;-58
2022/08/28 06:28:01;;;;;;;;;;;999.10;1280.00;;;;;;5072153;28;19912;-58
2022/08/28 06:30:26;;;;;;;;;;;1024.50;1228.80;;;;;;5072184;28;19913;-58
2022/08/28 06:32:52;;;;;;;;;;;1050.20;1228.80;;;;;;5072072;28;19917;-58
2022/08/28 06:35:17;;;;;;;;;;;1050.20;1177.60;;;;;;5072333;28;19978;-59
2022/08/28 06:37:43;;;;;;;;;;;1050.30;1177.60;;;;;;5071987;28;19995;-56
2022/08/28 06:40:09;;;;;;;;;;;1075.30;1152.00;;;;;;5072136;28;19932;-58
2022/08/28 06:42:34;;;;;;;;;;;1075.30;1177.60;;;;;;5072126;28;19908;-56
2022/08/28 06:45:00;;;;;;;;;;;1075.90;1126.40;;;;;;5071860;28;20358;-56
2022/08/28 06:47:25;;;;;;;;;;;1076.10;1126.40;;;;;;5071838;28;19916;-57
2022/08/28 06:49:51;;;;;;;;;;;1100.80;1152.00;;;;;;5071560;28;19948;-57
2022/08/28 06:52:17;;;;;;;;;;;1075.80;1126.40;;;;;;5071746;28;19954;-57
2022/08/28 06:54:42;;;;;;;;;;;1050.40;1203.20;;;;;;5071656;28;20003;-59
2022/08/28 06:57:08;;;;;;;;;;;1075.40;1152.00;;;;;;5071762;28;19970;-59
2022/08/28 06:59:34;;;;;;;;;;;1075.60;1152.00;;;;;;5071427;28;20316;-59
2022/08/28 07:02:00;;;;;;;;;;;1075.90;1126.40;;;;;;5071460;28;19958;-59
2022/08/28 07:04:26;;;;;;;;;;;1075.80;1100.80;;;;;;5071508;28;19916;-59
2022/08/28 07:06:52;;;;;;;;;;;1101.20;1100.80;;;;;;5071270;28;20401;-59
2022/08/28 07:09:17;;;;;;;;;;;1126.70;1100.80;;;;;;5071463;28;19909;-57
2022/08/28 07:11:45;;;;;;;;;;;1152.20;1049.60;;;;;;5070915;28;19915;-60
2022/08/28 07:14:11;;;;;;;;;;;1152.20;1049.60;;;;;;5071424;28;19912;-57
2022/08/28 07:16:37;;;;;;;;;;;1152.70;1049.60;;;;;;5071299;28;20273;-59
2022/08/28 07:19:04;;;;;;;;;;;1152.50;1049.60;;;;;;5071069;28;19916;-61
2022/08/28 07:21:31;;;;;;;;;;;1178.00;1024.00;;;;;;5071405;28;20057;-61
2022/08/28 07:23:57;;;;;;;;;;;1152.70;1024.00;;;;;;5071281;28;20504;-61
2022/08/28 07:26:23;;;;;;;;;;;1152.50;1049.60;;;;;;5071148;28;19999;-61
2022/08/28 07:28:49;;;;;;;;;;;1178.50;1024.00;;;;;;5071303;28;19993;-61
2022/08/28 07:31:16;;;;;;;;;;;1203.30;1024.00;;;;;;5071190;28;19912;-58
2022/08/28 07:33:42;;;;;;;;;;;1203.30;1024.00;;;;;;5070865;28;20473;-60
2022/08/28 07:36:09;;;;;;;;;;;1203.30;998.40;;;;;;5071353;28;19935;-61
2022/08/28 07:38:34;;;;;;;;;;;1203.60;972.80;;;;;;5070816;28;20319;-61
2022/08/28 07:41:01;;;;;;;;;;;1203.40;998.40;;;;;;5070951;28;19954;-58
2022/08/28 07:46:11;;;;;;;;;;;1229.00;972.80;;;;;;5071096;28;19974;-60
2022/08/28 07:48:37;;;;;;;;;;;1229.00;998.40;;;;;;5071107;28;19913;-59
2022/08/28 07:51:04;;;;;;;;;;;1229.20;998.40;;;;;;5070709;28;19908;-60
2022/08/28 07:53:30;;;;;;;;;;;1229.00;998.40;;;;;;5070805;28;20429;-59
2022/08/28 07:55:56;;;;;;;;;;;1229.20;972.80;;;;;;5070835;28;19955;-59
2022/08/28 07:58:24;;;;;;;;;;;1203.80;972.80;;;;;;5070730;28;19909;-61
2022/08/28 08:00:51;;;;;;;;;;;1228.80;998.40;;;;;;5070478;28;20007;-60
2022/08/28 08:03:16;;;;;;;;;;;1229.40;972.80;;;;;;5070715;28;20366;-60
2022/08/28 08:05:50;;;;;;;;;;;1254.50;972.80;;;;;;5070395;28;19966;-60
2022/08/28 08:08:15;;;;;;;;;;;1204.10;972.80;;;;;;5070819;28;20424;-61
2022/08/28 08:10:41;;;;;;;;;;;1228.80;998.40;;;;;;5070748;28;19916;-57
2022/08/28 08:13:06;;;;;;;;;;;1229.40;972.80;;;;;;5070721;28;20350;-56
2022/08/28 08:15:32;;;;;;;;;;;1229.50;972.80;;;;;;5070683;28;19915;-59
2022/08/28 08:17:58;;;;;;;;;;;1229.50;998.40;;;;;;5070694;28;20342;-60
2022/08/28 08:20:23;;;;;;;;;;;1254.40;998.40;;;;;;5070517;28;19916;-59
2022/08/28 08:22:49;;;;;;;;;;;1254.60;972.80;;;;;;5071227;28;19909;-61
2022/08/28 08:25:14;;;;;;;;;;;1254.60;972.80;;;;;;5074746;28;19982;-61
2022/08/28 08:27:40;;;;;;;;;;;1229.20;972.80;;;;;;5074441;28;19974;-58
2022/08/28 08:30:06;;;;;;;;;;;1229.40;972.80;;;;;;5074569;28;19951;-59
2022/08/28 08:32:31;;;;;;;;;;;1229.70;972.80;;;;;;5074300;28;19966;-61
2022/08/28 08:34:58;;;;;;;;;;;1229.40;972.80;;;;;;5074625;28;20293;-61
2022/08/28 08:37:23;;;;;;;;;;;1203.70;998.40;;;;;;5074144;28;19950;-61
2022/08/28 08:39:49;;;;;;;;;;;1178.20;998.40;;;;;;5074565;28;19940;-59
2022/08/28 08:42:18;;;;;;;;;;;1178.20;998.40;;;;;;5074123;28;20272;-58
2022/08/28 08:44:45;;;;;;;;;;;1152.50;1024.00;;;;;;5074038;28;19909;-58
2022/08/28 08:47:15;;;;;;;;;;;1101.50;1049.60;;;;;;5073973;28;19908;-58
2022/08/28 08:49:59;;;;;;;;;;;1075.90;1100.80;;;;;;5074014;28;19947;-57
2022/08/28 08:52:43;;;;;;;;;;;1024.70;1177.60;;;;;;5074137;28;19962;-57
2022/08/28 08:55:13;;;;;;;;;;;999.00;1203.20;;;;;;5072272;28;19912;-57
2022/08/28 08:57:38;;;;;;;;;;;998.80;1228.80;;;;;;5071930;28;19917;-55
2022/08/28 09:00:09;;;;;;;;;;;998.40;1280.00;;;;;;5071577;28;19962;-54
2022/08/28 09:02:37;;;;;;;;;;;973.30;1254.40;;;;;;5071484;28;19919;-57
2022/08/28 09:05:09;;;;;;;;;;;973.00;1254.40;;;;;;5071621;28;19920;-57
2022/08/28 09:07:40;;;;;;;;;;;972.90;1280.00;;;;;;5071956;28;19909;-57
2022/08/28 09:10:09;;;;;;;;;;;948.10;1254.40;;;;;;5071642;28;20366;-57
2022/08/28 09:12:45;;;;;;;;;;;947.70;1305.60;;;;;;5071752;28;19973;-56
2022/08/28 09:15:16;;;;;;;;;;;922.50;1305.60;;;;;;5071311;28;19916;-59
2022/08/28 09:17:41;;;;;;;;;;;922.50;1305.60;;;;;;5071572;28;19921;-60
2022/08/28 09:20:09;;;;;;;;;;;922.40;1305.60;;;;;;5071884;28;20549;-57
2022/08/28 09:22:36;;;;;;;;;;;922.10;1356.80;;;;;;5070883;28;19908;-58
2022/08/28 09:25:02;;;;;;;;;;;922.50;1331.20;;;;;;5071399;28;19954;-56
2022/08/28 09:27:29;;;;;;;;;;;947.20;1305.60;;;;;;5071348;28;19913;-57
2022/08/28 09:29:59;;;;;;;;;;;947.20;1305.60;;;;;;5071242;28;19921;-57
2022/08/28 09:32:40;;;;;;;;;;;922.10;1356.80;;;;;;5071366;28;19916;-56
2022/08/28 09:35:14;;;;;;;;;;;922.00;1382.40;;;;;;5070701;28;19908;-59
2022/08/28 09:37:41;;;;;;;;;;;896.90;1331.20;;;;;;5071023;28;19916;-59
2022/08/28 09:40:16;;;;;;;;;;;921.70;1382.40;;;;;;5071283;28;20365;-59
2022/08/28 09:45:50;;;;;;;;;;;896.80;1356.80;;;;;;5071000;28;20320;-56
2022/08/28 09:48:20;;;;;;;;;;;871.30;1382.40;;;;;;5070705;28;19913;-57
2022/08/28 09:51:04;;;;;;;;;;;896.00;1382.40;;;;;;5070931;28;19917;-57
2022/08/28 09:53:32;;;;;;;;;;;896.10;1382.40;;;;;;5070797;28;20012;-57
2022/08/28 09:56:01;;;;;;;;;;;896.40;1356.80;;;;;;5070752;28;19923;-56
2022/08/28 09:58:32;;;;;;;;;;;896.80;1356.80;;;;;;5071036;28;20266;-59
2022/08/28 10:01:01;;;;;;;;;;;896.80;1331.20;;;;;;5070384;28;20366;-57
2022/08/28 10:03:27;;;;;;;;;;;896.50;1356.80;;;;;;5070714;28;19921;-59
2022/08/28 10:06:01;;;;;;;;;;;896.50;1331.20;;;;;;5070280;28;20343;-57
2022/08/28 10:08:47;;;;;;;;;;;896.50;1331.20;;;;;;5070695;28;19918;-59
2022/08/28 10:11:39;;;;;;;;;;;896.80;1305.60;;;;;;5027989;28;20375;-57
2022/08/28 10:14:25;;;;;;;;;;;896.40;1305.60;;;;;;4997816;28;19909;-59
2022/08/28 10:16:51;;;;;;;;;;;896.30;1280.00;;;;;;5027901;28;19917;-58
2022/08/28 10:19:19;;;;;;;;;;;896.40;1305.60;;;;;;5027828;28;19916;-57
2022/08/28 10:22:17;;;;;;;;;;;871.30;1305.60;;;;;;5028073;28;20028;-58
2022/08/28 10:24:57;;;;;;;;;;;896.00;1305.60;;;;;;4949722;29;20010;-57
2022/08/28 10:27:25;;;;;;;;;;;870.90;1382.40;;;;;;4949305;29;19917;-60
2022/08/28 10:30:09;;;;;;;;;;;870.50;1382.40;;;;;;4949730;29;20189;-56
2022/08/28 10:32:40;;;;;;;;;;;870.90;1408.00;;;;;;4949314;29;19918;-56
2022/08/28 10:35:15;;;;;;;;;;;871.10;1433.60;;;;;;4949739;29;19915;-56
2022/08/28 10:37:46;;;;;;;;;;;871.10;1433.60;;;;;;4949397;28;19987;-57
2022/08/28 10:40:22;;;;;;;;;;;871.20;1382.40;;;;;;4949105;29;20381;-57
2022/08/28 10:43:05;;;;;;;;;;;871.20;1408.00;;;;;;4933751;28;19953;-55
2022/08/28 10:45:33;;;;;;;;;;;871.10;1408.00;;;;;;4948500;28;19997;-56
2022/08/28 10:48:17;;;;;;;;;;;870.70;1433.60;;;;;;4962752;28;20016;-56
2022/08/28 10:50:46;;;;;;;;;;;870.70;1484.80;;;;;;4988018;28;19910;-56
2022/08/28 10:53:16;;;;;;;;;;;870.70;1459.20;;;;;;4987668;28;19918;-56
2022/08/28 10:56:03;;;;;;;;;;;870.70;1459.20;;;;;;4987927;28;19910;-56
2022/08/28 10:58:29;;;;;;;;;;;870.70;1408.00;;;;;;4987972;28;20368;-56
2022/08/28 11:01:21;;;;;;;;;;;870.70;1433.60;;;;;;5049261;28;19923;-56
2022/08/28 11:03:49;;;;;;;;;;;870.70;1382.40;;;;;;5029441;28;19920;-56
2022/08/28 11:06:17;;;;;;;;;;;870.70;1459.20;;;;;;5029411;28;19921;-57
2022/08/28 11:08:48;;;;;;;;;;;870.70;1459.20;;;;;;5029429;28;19909;-57
2022/08/28 11:11:33;;;;;;;;;;;870.80;1408.00;;;;;;5029281;28;20004;-56
2022/08/28 11:14:00;;;;;;;;;;;870.70;1459.20;;;;;;5029511;28;19910;-56
2022/08/28 11:16:29;;;;;;;;;;;871.30;1433.60;;;;;;5029502;28;19940;-57
2022/08/28 11:19:13;;;;;;;;;;;870.90;1433.60;;;;;;5029139;28;19917;-58
2022/08/28 11:21:45;;;;;;;;;;;870.90;1408.00;;;;;;5029390;28;19952;-57
2022/08/28 11:24:31;;;;;;;;;;;871.10;1408.00;;;;;;5029126;28;19909;-56
2022/08/28 11:26:59;;;;;;;;;;;870.90;1408.00;;;;;;4951294;29;19917;-59
2022/08/28 11:29:43;;;;;;;;;;;870.70;1408.00;;;;;;4951008;29;19917;-59
2022/08/28 11:32:27;;;;;;;;;;;870.90;1433.60;;;;;;4951340;29;19926;-58
2022/08/28 11:34:56;;;;;;;;;;;870.90;1408.00;;;;;;4950953;29;19957;-58
2022/08/28 11:37:38;;;;;;;;;;;870.70;1356.80;;;;;;4950811;29;19926;-57
2022/08/28 11:40:17;;;;;;;;;;;870.50;1408.00;;;;;;4962074;28;19917;-58
2022/08/28 11:42:47;;;;;;;;;;;870.80;1408.00;;;;;;4989576;28;19956;-57
2022/08/28 11:45:36;;;;;;;;;;;870.90;1433.60;;;;;;4989596;28;19910;-56
2022/08/28 11:48:03;;;;;;;;;;;870.90;1408.00;;;;;;4984190;28;19910;-58
2022/08/28 11:50:29;;;;;;;;;;;871.00;1408.00;;;;;;4989607;28;20391;-59
2022/08/28 11:53:11;;;;;;;;;;;871.00;1382.40;;;;;;4989403;28;20333;-58
2022/08/28 11:55:43;;;;;;;;;;;871.10;1408.00;;;;;;4989120;28;20370;-57
2022/08/28 11:58:18;;;;;;;;;;;871.20;1382.40;;;;;;4989782;28;19914;-58
2022/08/28 12:00:58;;;;;;;;;;;871.10;1408.00;;;;;;4989256;28;19956;-58
2022/08/28 12:03:24;;;;;;;;;;;871.30;1408.00;;;;;;5008750;28;19913;-58
2022/08/28 12:05:53;;;;;;;;;;;896.10;1433.60;;;;;;5070871;28;19920;-59
2022/08/28 12:08:37;;;;;;;;;;;896.20;1382.40;;;;;;5070892;28;19908;-58
2022/08/28 12:11:02;;;;;;;;;;;896.20;1382.40;;;;;;5070551;28;19908;-58
2022/08/28 12:13:43;;;;;;;;;;;896.40;1356.80;;;;;;5070868;28;19908;-59
2022/08/28 12:16:08;;;;;;;;;;;896.10;1382.40;;;;;;5070912;28;20324;-58
2022/08/28 12:18:37;;;;;;;;;;;896.10;1382.40;;;;;;5070651;28;19913;-59
2022/08/28 12:21:04;;;;;;;;;;;896.00;1408.00;;;;;;5070534;28;20328;-58
2022/08/28 12:23:35;;;;;;;;;;;896.20;1382.40;;;;;;5070851;28;19916;-57
2022/08/28 12:26:07;;;;;;;;;;;896.40;1382.40;;;;;;5070476;28;19912;-60
2022/08/28 12:28:39;;;;;;;;;;;896.10;1382.40;;;;;;5070689;28;20277;-58
2022/08/28 12:31:04;;;;;;;;;;;896.10;1408.00;;;;;;5070413;28;19912;-58
2022/08/28 12:33:32;;;;;;;;;;;896.00;1382.40;;;;;;5070609;28;19919;-59
2022/08/28 12:36:00;;;;;;;;;;;871.10;1408.00;;;;;;5070553;28;19916;-58
2022/08/28 12:38:28;;;;;;;;;;;896.00;1408.00;;;;;;5070654;28;19965;-59
2022/08/28 12:40:54;;;;;;;;;;;896.00;1382.40;;;;;;5070189;28;19916;-58
2022/08/28 12:43:38;;;;;;;;;;;896.10;1433.60;;;;;;5070803;28;19908;-58
2022/08/28 12:46:09;;;;;;;;;;;896.10;1356.80;;;;;;5070369;28;19908;-57
2022/08/28 12:48:49;;;;;;;;;;;896.20;1382.40;;;;;;5070232;28;19915;-60
2022/08/28 12:51:18;;;;;;;;;;;896.00;1382.40;;;;;;5070307;28;19908;-59
2022/08/28 12:53:45;;;;;;;;;;;896.10;1408.00;;;;;;5070223;28;19912;-57
2022/08/28 12:56:12;;;;;;;;;;;896.20;1382.40;;;;;;5070233;28;20345;-58
2022/08/28 12:58:39;;;;;;;;;;;896.20;1408.00;;;;;;5070463;28;19956;-58
2022/08/28 13:01:07;;;;;;;;;;;896.10;1408.00;;;;;;5070038;28;20334;-57
2022/08/28 13:03:33;;;;;;;;;;;896.10;1382.40;;;;;;5068435;28;20353;-58
2022/08/28 13:06:02;;;;;;;;;;;896.00;1408.00;;;;;;5070168;28;19967;-58
2022/08/28 13:08:28;;;;;;;;;;;871.00;1408.00;;;;;;5070291;28;19909;-58
2022/08/28 13:10:54;;;;;;;;;;;871.10;1382.40;;;;;;5073572;28;19968;-59
2022/08/28 13:13:36;;;;;;;;;;;870.60;1408.00;;;;;;5073774;28;20402;-58
2022/08/28 13:16:04;;;;;;;;;;;870.90;1433.60;;;;;;5073492;28;19916;-58
2022/08/28 13:18:32;;;;;;;;;;;871.00;1433.60;;;;;;5073668;28;19955;-58
2022/08/28 13:21:30;;;;;;;;;;;870.80;1408.00;;;;;;5073621;28;20003;-57
2022/08/28 13:23:57;;;;;;;;;;;870.60;1408.00;;;;;;5031542;28;19940;-57
2022/08/28 13:26:33;;;;;;;;;;;870.50;1433.60;;;;;;5031437;28;20378;-57
2022/08/28 13:29:15;;;;;;;;;;;870.50;1433.60;;;;;;5031460;28;19928;-58
2022/08/28 13:31:42;;;;;;;;;;;870.40;1433.60;;;;;;5031167;28;19959;-58
2022/08/28 13:34:10;;;;;;;;;;;870.40;1433.60;;;;;;5031287;28;19968;-58
2022/08/28 13:36:43;;;;;;;;;;;870.50;1408.00;;;;;;5031129;28;19913;-58
2022/08/28 13:39:09;;;;;;;;;;;845.50;1433.60;;;;;;5031335;28;20323;-56
2022/08/28 13:41:34;;;;;;;;;;;845.60;1408.00;;;;;;5031090;28;20004;-56
2022/08/28 13:44:00;;;;;;;;;;;845.60;1433.60;;;;;;5031229;28;19987;-56
2022/08/28 13:46:26;;;;;;;;;;;870.40;1459.20;;;;;;5031310;28;20349;-56
2022/08/28 13:48:51;;;;;;;;;;;870.50;1433.60;;;;;;5030864;28;19955;-56
2022/08/28 13:51:17;;;;;;;;;;;845.70;1433.60;;;;;;5031061;28;20027;-56
2022/08/28 13:53:43;;;;;;;;;;;845.40;1433.60;;;;;;5030765;28;20406;-56
2022/08/28 13:56:09;;;;;;;;;;;845.30;1433.60;;;;;;5031112;28;19940;-58